createdAt,value
2018-12-08T00:00:44.998Z,6.00
2018-12-08T00:03:12.496Z,5.90
2018-12-08T00:05:40.005Z,5.90
2018-12-08T00:08:07.593Z,5.80
2018-12-08T00:10:35.124Z,5.70
2018-12-08T00:13:02.576Z,5.60
2018-12-08T00:15:30.308Z,5.50
2018-12-08T00:17:57.749Z,5.50
2018-12-08T00:20:25.310Z,5.50
2018-12-08T00:22:52.809Z,5.40
2018-12-08T00:25:20.241Z,5.30
2018-12-08T00:27:47.831Z,5.20
2018-12-08T00:30:27.420Z,5.20
2018-12-08T00:32:54.885Z,5.10
2018-12-08T00:35:22.346Z,5.00
2018-12-08T00:37:50.333Z,4.90
2018-12-08T00:40:18.472Z,4.80
2018-12-08T00:42:46.723Z,4.70
2018-12-08T00:45:14.339Z,4.50
2018-12-08T00:47:41.797Z,4.50
2018-12-08T00:50:09.237Z,4.40
2018-12-08T00:52:36.782Z,4.30
2018-12-08T00:55:04.970Z,4.20
2018-12-08T00:57:32.492Z,4.20
2018-12-08T00:59:59.946Z,4.30
2018-12-08T01:02:27.376Z,4.30
2018-12-08T01:04:54.934Z,4.40
2018-12-08T01:07:22.408Z,4.40
2018-12-08T01:09:49.862Z,4.50
2018-12-08T01:12:17.351Z,4.50
2018-12-08T01:14:44.802Z,4.40
2018-12-08T01:17:12.278Z,4.40
2018-12-08T01:19:39.691Z,4.40
2018-12-08T01:22:20.606Z,4.30
2018-12-08T01:24:53.141Z,4.20
2018-12-08T01:27:20.972Z,4.20
2018-12-08T01:29:48.487Z,4.00
2018-12-08T01:32:16.030Z,4.00
2018-12-08T01:34:43.549Z,3.90
2018-12-08T01:37:10.994Z,3.90
2018-12-08T01:39:38.462Z,3.90
2018-12-08T01:42:05.902Z,3.80
2018-12-08T01:44:33.337Z,3.80
2018-12-08T01:47:00.825Z,3.80
2018-12-08T01:49:28.326Z,3.80
2018-12-08T01:51:55.788Z,3.80
2018-12-08T01:54:23.200Z,3.80
2018-12-08T01:56:50.979Z,3.80
2018-12-08T01:59:18.453Z,3.80
2018-12-08T02:01:45.930Z,3.90
2018-12-08T02:04:13.432Z,4.00
2018-12-08T02:06:40.873Z,4.10
2018-12-08T02:09:08.389Z,4.10
2018-12-08T02:11:35.925Z,4.10
2018-12-08T02:14:03.432Z,4.10
2018-12-08T02:16:30.951Z,4.00
2018-12-08T02:18:58.489Z,4.00
2018-12-08T02:21:25.938Z,4.00
2018-12-08T02:23:53.377Z,4.10
2018-12-08T02:26:20.882Z,4.10
2018-12-08T02:28:48.308Z,4.20
2018-12-08T02:31:15.770Z,4.20
2018-12-08T02:33:43.214Z,4.30
2018-12-08T02:36:10.745Z,4.30
2018-12-08T02:38:38.271Z,4.30
2018-12-08T02:41:05.791Z,4.20
2018-12-08T02:43:33.270Z,4.10
2018-12-08T02:46:00.743Z,4.10
2018-12-08T02:48:28.329Z,4.00
2018-12-08T02:50:55.893Z,4.00
2018-12-08T02:53:23.362Z,3.90
2018-12-08T02:55:51.180Z,3.80
2018-12-08T02:58:18.676Z,3.80
2018-12-08T03:00:46.093Z,3.70
2018-12-08T03:03:13.750Z,3.60
2018-12-08T03:05:41.182Z,3.70
2018-12-08T03:08:08.675Z,3.60
2018-12-08T03:10:36.264Z,3.60
2018-12-08T03:13:03.833Z,3.60
2018-12-08T03:15:31.268Z,3.70
2018-12-08T03:17:58.785Z,3.70
2018-12-08T03:20:26.201Z,3.70
2018-12-08T03:22:53.762Z,3.70
2018-12-08T03:25:21.224Z,3.70
2018-12-08T03:27:48.676Z,3.70
2018-12-08T03:30:16.147Z,3.70
2018-12-08T03:32:43.646Z,3.70
2018-12-08T03:35:11.203Z,3.70
2018-12-08T03:37:38.639Z,3.60
2018-12-08T03:40:06.260Z,3.60
2018-12-08T03:42:33.677Z,3.60
2018-12-08T03:45:01.132Z,3.60
2018-12-08T03:47:28.666Z,3.50
2018-12-08T03:49:56.126Z,3.50
2018-12-08T03:52:23.548Z,3.50
2018-12-08T03:54:51.098Z,3.50
2018-12-08T03:57:19.151Z,3.40
2018-12-08T03:59:46.580Z,3.50
2018-12-08T04:02:14.082Z,3.50
2018-12-08T04:04:41.509Z,3.50
2018-12-08T04:07:08.989Z,3.50
2018-12-08T04:09:36.461Z,3.50
2018-12-08T04:12:03.923Z,3.50
2018-12-08T04:14:31.390Z,3.50
2018-12-08T04:16:59.006Z,3.60
2018-12-08T04:19:26.422Z,3.70
2018-12-08T04:21:53.963Z,3.80
2018-12-08T04:24:21.449Z,3.80
2018-12-08T04:26:48.915Z,3.80
2018-12-08T04:29:16.331Z,3.90
2018-12-08T04:31:43.913Z,3.90
2018-12-08T04:34:11.357Z,3.90
2018-12-08T04:36:38.799Z,3.80
2018-12-08T04:39:06.561Z,3.70
2018-12-08T04:41:34.038Z,3.70
2018-12-08T04:44:01.468Z,3.70
2018-12-08T04:46:29.017Z,3.70
2018-12-08T04:48:56.445Z,3.70
2018-12-08T04:51:23.911Z,3.70
2018-12-08T04:53:51.376Z,3.70
2018-12-08T04:56:18.792Z,3.70
2018-12-08T04:58:46.474Z,3.60
2018-12-08T05:01:14.166Z,3.70
2018-12-08T05:03:41.876Z,3.70
2018-12-08T05:06:09.308Z,3.70
2018-12-08T05:08:36.825Z,3.70
2018-12-08T05:11:04.265Z,3.60
2018-12-08T05:13:31.726Z,3.60
2018-12-08T05:15:59.281Z,3.50
2018-12-08T05:18:26.758Z,3.50
2018-12-08T05:20:54.467Z,3.60
2018-12-08T05:23:21.968Z,3.60
2018-12-08T05:25:49.443Z,3.60
2018-12-08T05:28:16.932Z,3.50
2018-12-08T05:30:44.405Z,3.50
2018-12-08T05:33:11.903Z,3.30
2018-12-08T05:35:39.352Z,3.20
2018-12-08T05:38:06.841Z,3.10
2018-12-08T05:40:34.311Z,3.00
2018-12-08T05:43:01.744Z,2.90
2018-12-08T05:45:29.264Z,2.80
2018-12-08T05:47:56.747Z,2.70
2018-12-08T05:50:24.199Z,2.70
2018-12-08T05:52:51.667Z,2.80
2018-12-08T05:55:19.232Z,2.80
2018-12-08T05:57:46.719Z,2.80
2018-12-08T06:00:14.188Z,2.80
2018-12-08T06:02:41.619Z,2.70
2018-12-08T06:05:09.075Z,2.80
2018-12-08T06:07:36.517Z,2.80
2018-12-08T06:10:05.000Z,2.90
2018-12-08T06:12:32.408Z,2.90
2018-12-08T06:14:59.930Z,3.10
2018-12-08T06:17:27.392Z,3.10
2018-12-08T06:19:54.917Z,3.30
2018-12-08T06:22:22.441Z,3.30
2018-12-08T06:24:49.926Z,3.30
2018-12-08T06:27:17.579Z,3.40
2018-12-08T06:29:45.479Z,3.40
2018-12-08T06:32:13.020Z,3.50
2018-12-08T06:34:40.471Z,3.50
2018-12-08T06:37:07.949Z,3.50
2018-12-08T06:39:35.387Z,3.50
2018-12-08T06:42:02.952Z,3.60
2018-12-08T06:44:30.437Z,3.50
2018-12-08T06:46:57.856Z,3.60
2018-12-08T06:49:25.347Z,3.60
2018-12-08T06:51:52.833Z,3.50
2018-12-08T06:54:20.255Z,3.50
2018-12-08T06:56:47.706Z,3.50
2018-12-08T06:59:15.220Z,3.50
2018-12-08T07:01:42.673Z,3.50
2018-12-08T07:04:10.214Z,3.50
2018-12-08T07:06:37.731Z,3.60
2018-12-08T07:09:06.099Z,3.60
2018-12-08T07:11:33.553Z,3.70
2018-12-08T07:14:01.057Z,3.70
2018-12-08T07:16:28.464Z,3.80
2018-12-08T07:18:56.323Z,3.90
2018-12-08T07:21:23.744Z,3.90
2018-12-08T07:23:51.206Z,3.90
2018-12-08T07:26:18.640Z,4.00
2018-12-08T07:28:46.144Z,3.90
2018-12-08T07:31:13.564Z,4.00
2018-12-08T07:33:41.096Z,4.00
2018-12-08T07:36:08.606Z,4.00
2018-12-08T07:38:36.028Z,4.10
2018-12-08T07:41:03.531Z,4.10
2018-12-08T07:43:31.010Z,4.10
2018-12-08T07:45:58.483Z,4.20
2018-12-08T07:48:25.924Z,4.20
2018-12-08T07:50:53.426Z,4.20
2018-12-08T07:53:20.881Z,4.20
2018-12-08T07:55:48.333Z,4.20
2018-12-08T07:58:15.792Z,4.20
2018-12-08T08:00:43.228Z,4.40
2018-12-08T08:03:10.701Z,4.30
2018-12-08T08:05:38.135Z,4.20
2018-12-08T08:08:05.758Z,4.10
2018-12-08T08:10:33.361Z,4.00
2018-12-08T08:13:00.830Z,4.10
2018-12-08T08:15:28.361Z,4.10
2018-12-08T08:17:55.820Z,4.10
2018-12-08T08:20:23.311Z,4.20
2018-12-08T08:22:50.771Z,4.20
2018-12-08T08:25:18.188Z,4.30
2018-12-08T08:27:45.691Z,4.30
2018-12-08T08:30:13.229Z,4.30
2018-12-08T08:32:40.686Z,4.30
2018-12-08T08:35:08.258Z,4.30
2018-12-08T08:37:35.669Z,4.30
2018-12-08T08:40:05.587Z,4.20
2018-12-08T08:42:33.096Z,4.20
2018-12-08T08:45:00.538Z,4.20
2018-12-08T08:47:27.993Z,4.20
2018-12-08T08:49:55.939Z,4.40
2018-12-08T08:52:23.400Z,4.50
2018-12-08T08:54:50.838Z,4.60
2018-12-08T08:57:18.649Z,4.60
2018-12-08T08:59:46.119Z,4.60
2018-12-08T09:02:13.583Z,4.60
2018-12-08T09:04:41.106Z,4.50
2018-12-08T09:07:08.529Z,4.50
2018-12-08T09:09:36.013Z,4.50
2018-12-08T09:12:03.468Z,4.50
2018-12-08T09:14:30.929Z,4.60
2018-12-08T09:16:58.353Z,4.60
2018-12-08T09:19:25.816Z,4.50
2018-12-08T09:21:53.340Z,4.50
2018-12-08T09:24:20.791Z,4.60
2018-12-08T09:26:48.380Z,4.80
2018-12-08T09:29:15.850Z,4.70
2018-12-08T09:31:43.286Z,4.70
2018-12-08T09:34:10.794Z,4.50
2018-12-08T09:36:38.257Z,4.50
2018-12-08T09:39:06.154Z,4.70
2018-12-08T09:41:33.681Z,4.60
2018-12-08T09:44:01.286Z,4.80
2018-12-08T09:46:28.862Z,4.60
2018-12-08T09:48:56.657Z,4.50
2018-12-08T09:51:24.121Z,4.40
2018-12-08T09:53:51.633Z,4.40
2018-12-08T09:56:19.074Z,4.60
2018-12-08T09:58:46.598Z,4.60
2018-12-08T10:01:14.105Z,4.60
2018-12-08T10:03:41.606Z,4.60
2018-12-08T10:06:09.065Z,4.70
2018-12-08T10:08:36.593Z,4.80
2018-12-08T10:13:49.550Z,4.90
2018-12-08T10:16:17.009Z,4.80
2018-12-08T10:18:44.464Z,4.60
2018-12-08T10:21:12.000Z,4.50
2018-12-08T10:23:39.526Z,4.50
2018-12-08T10:26:06.989Z,4.60
2018-12-08T10:28:34.508Z,4.50
2018-12-08T10:31:02.035Z,4.50
2018-12-08T10:33:29.696Z,4.50
2018-12-08T10:35:57.220Z,4.50
2018-12-08T10:38:25.659Z,4.40
2018-12-08T10:40:53.087Z,4.40
2018-12-08T10:43:20.510Z,4.50
2018-12-08T10:45:48.273Z,4.50
2018-12-08T10:48:15.783Z,4.50
2018-12-08T10:50:43.219Z,4.50
2018-12-08T10:53:10.718Z,4.70
2018-12-08T10:55:38.137Z,4.80
2018-12-08T10:58:05.594Z,4.80
2018-12-08T11:03:47.080Z,4.80
2018-12-08T11:06:18.778Z,4.80
2018-12-08T11:08:46.315Z,4.70
2018-12-08T11:11:13.755Z,4.70
2018-12-08T11:13:41.332Z,4.70
2018-12-08T11:16:08.813Z,4.60
2018-12-08T11:18:36.361Z,4.60
2018-12-08T11:21:04.008Z,4.50
2018-12-08T11:23:31.420Z,4.70
2018-12-08T11:25:58.859Z,4.70
2018-12-08T11:28:26.334Z,4.60
2018-12-08T11:30:53.901Z,4.60
2018-12-08T11:33:21.395Z,4.50
2018-12-08T11:35:49.756Z,4.40
2018-12-08T11:38:17.540Z,4.40
2018-12-08T11:40:44.957Z,4.40
2018-12-08T11:43:12.932Z,4.50
2018-12-08T11:45:40.379Z,4.50
2018-12-08T11:48:08.128Z,4.50
2018-12-08T11:50:35.696Z,4.50
2018-12-08T11:53:03.145Z,4.50
2018-12-08T11:55:30.836Z,4.50
2018-12-08T11:57:58.534Z,4.70
2018-12-08T12:00:27.357Z,4.60
2018-12-08T12:02:55.766Z,4.60
2018-12-08T12:05:23.570Z,4.60
2018-12-08T12:07:51.178Z,4.50
2018-12-08T12:10:18.604Z,4.50
2018-12-08T12:12:46.051Z,4.60
2018-12-08T12:15:13.625Z,4.50
2018-12-08T12:17:41.241Z,4.40
2018-12-08T12:20:08.975Z,4.40
2018-12-08T12:22:36.629Z,4.50
2018-12-08T12:25:05.745Z,4.50
2018-12-08T12:27:33.310Z,4.40
2018-12-08T12:30:00.834Z,4.40
2018-12-08T12:32:28.361Z,4.40
2018-12-08T12:34:55.898Z,4.50
2018-12-08T12:37:23.396Z,4.70
2018-12-08T12:39:50.905Z,4.70
2018-12-08T12:42:18.675Z,4.80
2018-12-08T12:44:46.991Z,4.80
2018-12-08T12:47:14.539Z,4.80
2018-12-08T12:49:42.076Z,4.70
2018-12-08T12:52:09.481Z,4.80
2018-12-08T12:54:36.908Z,4.70
2018-12-08T12:57:04.430Z,4.70
2018-12-08T12:59:31.921Z,4.80
2018-12-08T13:01:59.415Z,4.80
2018-12-08T13:04:26.900Z,4.80
2018-12-08T13:06:54.377Z,4.60
2018-12-08T13:09:21.863Z,4.60
2018-12-08T13:11:49.609Z,4.50
2018-12-08T13:14:17.156Z,4.60
2018-12-08T13:16:44.635Z,4.60
2018-12-08T13:19:12.682Z,4.60
2018-12-08T13:21:40.688Z,4.50
2018-12-08T13:24:09.969Z,4.50
2018-12-08T13:26:37.466Z,4.60
2018-12-08T13:29:05.084Z,4.50
2018-12-08T13:31:32.589Z,4.60
2018-12-08T13:34:04.396Z,4.60
2018-12-08T13:36:31.842Z,4.70
2018-12-08T13:38:59.265Z,4.70
2018-12-08T13:41:26.784Z,4.70
2018-12-08T13:43:54.277Z,4.70
2018-12-08T13:46:21.788Z,4.70
2018-12-08T13:48:49.296Z,4.60
2018-12-08T13:51:16.864Z,4.50
2018-12-08T13:53:44.365Z,4.40
2018-12-08T13:56:11.944Z,4.40
2018-12-08T13:58:39.415Z,4.40
2018-12-08T14:01:06.849Z,4.50
2018-12-08T14:03:34.593Z,4.50
2018-12-08T14:06:02.079Z,4.40
2018-12-08T14:08:29.562Z,4.50
2018-12-08T14:10:57.146Z,4.60
2018-12-08T14:13:24.553Z,4.60
2018-12-08T14:15:52.119Z,4.50
2018-12-08T14:18:19.556Z,4.60
2018-12-08T14:20:47.034Z,4.60
2018-12-08T14:23:14.493Z,4.60
2018-12-08T14:25:42.048Z,4.60
2018-12-08T14:28:09.775Z,4.70
2018-12-08T14:30:37.221Z,4.70
2018-12-08T14:33:04.676Z,4.60
2018-12-08T14:35:32.153Z,4.60
2018-12-08T14:37:59.587Z,4.60
2018-12-08T14:40:27.079Z,4.60
2018-12-08T14:42:55.088Z,4.60
2018-12-08T14:45:22.636Z,4.60
2018-12-08T14:47:50.314Z,4.60
2018-12-08T14:50:17.917Z,4.60
2018-12-08T14:52:45.365Z,4.50
2018-12-08T14:55:12.827Z,4.60
2018-12-08T14:57:40.377Z,4.60
2018-12-08T15:00:08.226Z,4.50
2018-12-08T15:02:35.800Z,4.50
2018-12-08T15:05:04.373Z,4.50
2018-12-08T15:07:31.834Z,4.60
2018-12-08T15:09:59.305Z,4.60
2018-12-08T15:12:26.736Z,4.60
2018-12-08T15:14:54.237Z,4.60
2018-12-08T15:17:21.731Z,4.60
2018-12-08T15:19:49.239Z,4.60
2018-12-08T15:22:16.793Z,4.60
2018-12-08T15:24:51.265Z,4.60
2018-12-08T15:27:19.124Z,4.60
2018-12-08T15:29:46.581Z,4.70
2018-12-08T15:32:14.796Z,4.70
2018-12-08T15:34:43.585Z,4.70
2018-12-08T15:37:11.560Z,4.70
2018-12-08T15:39:43.807Z,4.70
2018-12-08T15:42:14.235Z,4.70
2018-12-08T15:44:42.007Z,4.70
2018-12-08T15:47:09.644Z,4.60
2018-12-08T15:49:37.160Z,4.60
2018-12-08T15:52:04.642Z,4.60
2018-12-08T15:54:32.831Z,4.70
2018-12-08T15:57:00.324Z,4.60
2018-12-08T15:59:27.789Z,4.60
2018-12-08T16:01:55.235Z,4.60
2018-12-08T16:04:22.779Z,4.60
2018-12-08T16:06:50.356Z,4.70
2018-12-08T16:09:17.933Z,4.80
2018-12-08T16:11:45.505Z,4.80
2018-12-08T16:14:12.958Z,4.80
2018-12-08T16:16:40.380Z,4.80
2018-12-08T16:19:07.880Z,4.80
2018-12-08T16:21:35.498Z,4.80
2018-12-08T16:24:02.957Z,4.80
2018-12-08T16:26:30.454Z,4.80
2018-12-08T16:28:58.093Z,4.90
2018-12-08T16:31:25.758Z,4.90
2018-12-08T16:33:53.354Z,4.90
2018-12-08T16:36:20.937Z,4.90
2018-12-08T16:38:48.409Z,4.90
2018-12-08T16:41:16.108Z,4.90
2018-12-08T16:43:43.654Z,4.90
2018-12-08T16:46:11.085Z,5.00
2018-12-08T16:48:38.593Z,5.00
2018-12-08T16:51:06.082Z,5.00
2018-12-08T16:53:33.518Z,5.00
2018-12-08T16:56:01.003Z,5.00
2018-12-08T16:58:28.484Z,5.00
2018-12-08T17:00:55.990Z,5.10
2018-12-08T17:03:23.483Z,5.10
2018-12-08T17:05:51.003Z,5.10
2018-12-08T17:08:18.541Z,5.10
2018-12-08T17:10:46.095Z,5.10
2018-12-08T17:13:13.540Z,5.10
2018-12-08T17:15:40.982Z,5.10
2018-12-08T17:18:08.628Z,5.10
2018-12-08T17:20:36.171Z,5.00
2018-12-08T17:23:03.709Z,5.00
2018-12-08T17:25:31.383Z,5.00
2018-12-08T17:27:58.797Z,4.90
2018-12-08T17:30:26.298Z,4.90
2018-12-08T17:32:54.254Z,4.90
2018-12-08T17:35:21.685Z,4.90
2018-12-08T17:37:49.130Z,4.90
2018-12-08T17:40:16.605Z,4.90
2018-12-08T17:42:44.096Z,4.90
2018-12-08T17:45:11.816Z,4.90
2018-12-08T17:47:39.482Z,4.90
2018-12-08T17:50:07.496Z,4.90
2018-12-08T17:52:34.974Z,5.00
2018-12-08T17:55:02.825Z,5.00
2018-12-08T17:57:30.320Z,5.10
2018-12-08T17:59:57.847Z,5.10
2018-12-08T18:02:25.478Z,5.10
2018-12-08T18:04:52.971Z,5.00
2018-12-08T18:07:21.143Z,5.10
2018-12-08T18:09:48.732Z,5.10
2018-12-08T18:12:16.389Z,5.20
2018-12-08T18:14:43.926Z,5.20
2018-12-08T18:17:11.416Z,5.10
2018-12-08T18:19:38.841Z,5.20
2018-12-08T18:22:06.741Z,5.20
2018-12-08T18:24:34.376Z,5.10
2018-12-08T18:27:01.963Z,5.20
2018-12-08T18:29:29.508Z,5.10
2018-12-08T18:31:57.729Z,5.10
2018-12-08T18:34:25.205Z,5.00
2018-12-08T18:36:52.685Z,5.00
2018-12-08T18:39:20.299Z,4.90
2018-12-08T18:41:47.775Z,4.90
2018-12-08T18:44:15.215Z,4.90
2018-12-08T18:46:42.701Z,5.00
2018-12-08T18:49:10.388Z,5.00
2018-12-08T18:51:37.909Z,5.00
2018-12-08T18:54:05.382Z,5.10
2018-12-08T18:56:32.834Z,5.10
2018-12-08T18:59:00.341Z,5.10
2018-12-08T19:01:27.838Z,5.10
2018-12-08T19:03:55.367Z,5.10
2018-12-08T19:06:22.824Z,5.00
2018-12-08T19:08:50.350Z,4.90
2018-12-08T19:11:17.969Z,5.00
2018-12-08T19:13:45.447Z,5.00
2018-12-08T19:16:13.426Z,5.00
2018-12-08T19:18:40.841Z,5.00
2018-12-08T19:21:08.643Z,5.00
2018-12-08T19:23:43.378Z,5.00
2018-12-08T19:26:05.709Z,5.00
2018-12-08T19:28:33.414Z,5.00
2018-12-08T19:31:00.989Z,5.00
2018-12-08T19:33:28.396Z,5.10
2018-12-08T19:35:56.113Z,5.10
2018-12-08T19:38:23.553Z,5.20
2018-12-08T19:40:50.996Z,5.20
2018-12-08T19:43:20.388Z,5.20
2018-12-08T19:45:47.906Z,5.20
2018-12-08T19:48:15.371Z,5.20
2018-12-08T19:50:42.832Z,5.20
2018-12-08T19:53:10.317Z,5.30
2018-12-08T19:55:37.773Z,5.30
2018-12-08T19:58:05.241Z,5.30
2018-12-08T20:00:32.971Z,5.30
2018-12-08T20:03:00.449Z,5.20
2018-12-08T20:05:27.854Z,5.20
2018-12-08T20:07:55.312Z,5.20
2018-12-08T20:10:23.069Z,5.20
2018-12-08T20:12:50.563Z,5.20
2018-12-08T20:15:18.096Z,5.20
2018-12-08T20:17:45.568Z,5.20
2018-12-08T20:20:13.029Z,5.20
2018-12-08T20:22:40.545Z,5.20
2018-12-08T20:25:08.071Z,5.20
2018-12-08T20:27:35.515Z,5.20
2018-12-08T20:30:03.113Z,5.20
2018-12-08T20:32:30.685Z,5.20
2018-12-08T20:34:58.150Z,5.20
2018-12-08T20:37:25.728Z,5.20
2018-12-08T20:39:53.401Z,5.20
2018-12-08T20:42:20.947Z,5.20
2018-12-08T20:44:48.435Z,5.10
2018-12-08T20:47:15.906Z,5.10
2018-12-08T20:49:43.324Z,5.10
2018-12-08T20:52:14.430Z,5.10
2018-12-08T20:54:41.900Z,5.10
2018-12-08T20:57:09.360Z,5.10
2018-12-08T20:59:36.843Z,5.10
2018-12-08T21:02:04.288Z,5.10
2018-12-08T21:04:32.422Z,5.10
2018-12-08T21:07:01.008Z,5.10
2018-12-08T21:09:28.481Z,5.20
2018-12-08T21:11:55.884Z,5.10
2018-12-08T21:14:23.405Z,5.20
2018-12-08T21:16:50.850Z,5.20
2018-12-08T21:19:18.544Z,5.20
2018-12-08T21:21:46.139Z,5.20
2018-12-08T21:24:13.620Z,5.20
2018-12-08T21:26:41.082Z,5.20
2018-12-08T21:29:08.564Z,5.30
2018-12-08T21:31:36.495Z,5.20
2018-12-08T21:34:04.046Z,5.20
2018-12-08T21:36:31.579Z,5.30
2018-12-08T21:38:59.035Z,5.30
2018-12-08T21:41:26.585Z,5.20
2018-12-08T21:43:54.056Z,5.30
2018-12-08T21:46:21.507Z,5.30
2018-12-08T21:48:48.944Z,5.30
2018-12-08T21:51:16.491Z,5.30
2018-12-08T21:53:43.978Z,5.30
2018-12-08T21:56:11.403Z,5.30
2018-12-08T21:58:39.003Z,5.30
2018-12-08T22:01:06.466Z,5.30
2018-12-08T22:03:33.902Z,5.30
2018-12-08T22:06:01.416Z,5.20
2018-12-08T22:08:28.899Z,5.20
2018-12-08T22:10:56.371Z,5.20
2018-12-08T22:13:23.850Z,5.20
2018-12-08T22:15:51.337Z,5.20
2018-12-08T22:18:18.783Z,5.20
2018-12-08T22:20:46.262Z,5.10
2018-12-08T22:23:13.712Z,5.20
2018-12-08T22:25:41.167Z,5.10
2018-12-08T22:28:08.859Z,5.10
2018-12-08T22:30:38.026Z,5.10
2018-12-08T22:33:05.668Z,5.10
2018-12-08T22:35:33.164Z,5.10
2018-12-08T22:38:00.642Z,5.10
2018-12-08T22:40:28.127Z,5.10
2018-12-08T22:42:55.607Z,5.10
2018-12-08T22:45:23.058Z,5.10
2018-12-08T22:47:50.576Z,5.10
2018-12-08T22:50:18.095Z,5.10
2018-12-08T22:52:45.565Z,5.10
2018-12-08T22:55:13.010Z,5.10
2018-12-08T22:57:40.524Z,5.10
2018-12-08T23:00:14.804Z,5.20
2018-12-08T23:02:42.273Z,5.10
2018-12-08T23:05:09.753Z,5.20
2018-12-08T23:07:37.188Z,5.20
2018-12-08T23:10:05.470Z,5.20
2018-12-08T23:12:32.900Z,5.20
2018-12-08T23:15:00.420Z,5.10
2018-12-08T23:17:27.909Z,5.10
2018-12-08T23:19:55.425Z,5.20
2018-12-08T23:22:22.860Z,5.20
2018-12-08T23:24:50.349Z,5.20
2018-12-08T23:27:17.830Z,5.20
2018-12-08T23:29:45.268Z,5.30
2018-12-08T23:32:12.737Z,5.30
2018-12-08T23:34:40.254Z,5.30
2018-12-08T23:37:07.725Z,5.40
2018-12-08T23:39:38.910Z,5.30
2018-12-08T23:42:04.746Z,5.40
2018-12-08T23:44:32.173Z,5.50
2018-12-08T23:46:59.656Z,5.50
2018-12-08T23:49:27.234Z,5.40
2018-12-08T23:51:55.089Z,5.50
2018-12-08T23:54:22.594Z,5.50
2018-12-08T23:56:52.019Z,5.50
2018-12-08T23:59:19.476Z,5.50
